sensor_id;sensor_type;location;lat;lon;timestamp;P1;durP1;ratioP1;P2;durP2;ratioP2
15624;SDS011;7912;51.376;6.126;2023-05-24T00:02:25;8.67;;;3.23;;
15624;SDS011;7912;51.376;6.126;2023-05-24T00:04:52;9.37;;;2.70;;
15624;SDS011;7912;51.376;6.126;2023-05-24T00:07:20;5.73;;;2.97;;
15624;SDS011;7912;51.376;6.126;2023-05-24T00:09:50;5.67;;;2.50;;
15624;SDS011;7912;51.376;6.126;2023-05-24T00:12:17;8.33;;;3.03;;
15624;SDS011;7912;51.376;6.126;2023-05-24T00:14:44;8.50;;;2.90;;
15624;SDS011;7912;51.376;6.126;2023-05-24T00:17:11;7.60;;;3.27;;
15624;SDS011;7912;51.376;6.126;2023-05-24T00:19:39;9.63;;;3.20;;
15624;SDS011;7912;51.376;6.126;2023-05-24T00:22:06;6.17;;;3.00;;
15624;SDS011;7912;51.376;6.126;2023-05-24T00:24:33;6.87;;;2.80;;
15624;SDS011;7912;51.376;6.126;2023-05-24T00:27:01;8.43;;;3.10;;
15624;SDS011;7912;51.376;6.126;2023-05-24T00:29:28;9.27;;;2.97;;
15624;SDS011;7912;51.376;6.126;2023-05-24T00:31:57;7.63;;;3.57;;
15624;SDS011;7912;51.376;6.126;2023-05-24T00:37:33;6.97;;;2.73;;
15624;SDS011;7912;51.376;6.126;2023-05-24T00:40:02;7.07;;;2.63;;
15624;SDS011;7912;51.376;6.126;2023-05-24T00:42:30;7.87;;;2.67;;
15624;SDS011;7912;51.376;6.126;2023-05-24T00:44:57;10.13;;;3.23;;
15624;SDS011;7912;51.376;6.126;2023-05-24T00:47:24;10.23;;;3.40;;
15624;SDS011;7912;51.376;6.126;2023-05-24T00:49:52;7.70;;;3.10;;
15624;SDS011;7912;51.376;6.126;2023-05-24T00:52:19;8.73;;;3.10;;
15624;SDS011;7912;51.376;6.126;2023-05-24T00:54:47;8.53;;;2.97;;
15624;SDS011;7912;51.376;6.126;2023-05-24T00:57:15;7.33;;;2.80;;
15624;SDS011;7912;51.376;6.126;2023-05-24T00:59:44;8.40;;;3.17;;
15624;SDS011;7912;51.376;6.126;2023-05-24T01:02:11;7.20;;;2.90;;
15624;SDS011;7912;51.376;6.126;2023-05-24T01:04:39;7.10;;;2.67;;
15624;SDS011;7912;51.376;6.126;2023-05-24T01:10:13;7.07;;;2.90;;
15624;SDS011;7912;51.376;6.126;2023-05-24T01:21:18;5.30;;;3.30;;
15624;SDS011;7912;51.376;6.126;2023-05-24T01:27:19;8.77;;;2.87;;
15624;SDS011;7912;51.376;6.126;2023-05-24T01:29:49;6.80;;;3.00;;
15624;SDS011;7912;51.376;6.126;2023-05-24T01:32:18;8.40;;;2.93;;
15624;SDS011;7912;51.376;6.126;2023-05-24T01:34:46;7.80;;;3.00;;
15624;SDS011;7912;51.376;6.126;2023-05-24T01:37:14;8.23;;;3.37;;
15624;SDS011;7912;51.376;6.126;2023-05-24T01:39:41;7.97;;;2.97;;
15624;SDS011;7912;51.376;6.126;2023-05-24T01:42:23;8.20;;;3.27;;
15624;SDS011;7912;51.376;6.126;2023-05-24T01:45:24;7.03;;;2.70;;
15624;SDS011;7912;51.376;6.126;2023-05-24T01:48:03;7.10;;;2.80;;
15624;SDS011;7912;51.376;6.126;2023-05-24T01:50:46;7.20;;;3.40;;
15624;SDS011;7912;51.376;6.126;2023-05-24T01:53:19;8.30;;;2.77;;
15624;SDS011;7912;51.376;6.126;2023-05-24T01:55:55;6.47;;;2.97;;
15624;SDS011;7912;51.376;6.126;2023-05-24T01:58:26;7.10;;;3.43;;
15624;SDS011;7912;51.376;6.126;2023-05-24T02:00:56;8.27;;;3.17;;
15624;SDS011;7912;51.376;6.126;2023-05-24T02:03:24;5.17;;;2.50;;
15624;SDS011;7912;51.376;6.126;2023-05-24T02:05:51;6.80;;;2.83;;
15624;SDS011;7912;51.376;6.126;2023-05-24T02:08:18;7.67;;;2.90;;
15624;SDS011;7912;51.376;6.126;2023-05-24T02:10:46;6.97;;;2.93;;
15624;SDS011;7912;51.376;6.126;2023-05-24T02:13:13;6.40;;;3.00;;
15624;SDS011;7912;51.376;6.126;2023-05-24T02:15:43;5.07;;;2.60;;
15624;SDS011;7912;51.376;6.126;2023-05-24T02:18:11;6.00;;;3.07;;
15624;SDS011;7912;51.376;6.126;2023-05-24T02:20:38;7.20;;;3.17;;
15624;SDS011;7912;51.376;6.126;2023-05-24T02:23:06;7.43;;;2.93;;
15624;SDS011;7912;51.376;6.126;2023-05-24T02:25:33;4.20;;;2.70;;
15624;SDS011;7912;51.376;6.126;2023-05-24T02:28:02;5.57;;;2.70;;
15624;SDS011;7912;51.376;6.126;2023-05-24T02:30:29;7.60;;;3.13;;
15624;SDS011;7912;51.376;6.126;2023-05-24T02:32:56;5.70;;;3.17;;
15624;SDS011;7912;51.376;6.126;2023-05-24T02:35:24;7.50;;;3.10;;
15624;SDS011;7912;51.376;6.126;2023-05-24T02:37:51;9.10;;;3.60;;
15624;SDS011;7912;51.376;6.126;2023-05-24T02:40:18;6.27;;;3.30;;
15624;SDS011;7912;51.376;6.126;2023-05-24T02:42:45;6.60;;;3.10;;
15624;SDS011;7912;51.376;6.126;2023-05-24T02:45:13;5.60;;;3.37;;
15624;SDS011;7912;51.376;6.126;2023-05-24T02:47:40;6.60;;;3.33;;
15624;SDS011;7912;51.376;6.126;2023-05-24T02:50:08;6.17;;;3.30;;
15624;SDS011;7912;51.376;6.126;2023-05-24T02:52:35;7.20;;;2.97;;
15624;SDS011;7912;51.376;6.126;2023-05-24T02:55:03;6.73;;;3.20;;
15624;SDS011;7912;51.376;6.126;2023-05-24T02:57:32;7.60;;;3.33;;
15624;SDS011;7912;51.376;6.126;2023-05-24T03:00:03;6.70;;;3.80;;
15624;SDS011;7912;51.376;6.126;2023-05-24T03:02:36;6.17;;;3.43;;
15624;SDS011;7912;51.376;6.126;2023-05-24T03:05:04;7.90;;;3.50;;
15624;SDS011;7912;51.376;6.126;2023-05-24T03:07:32;5.90;;;3.10;;
15624;SDS011;7912;51.376;6.126;2023-05-24T03:09:59;6.67;;;3.10;;
15624;SDS011;7912;51.376;6.126;2023-05-24T03:12:26;6.13;;;3.37;;
15624;SDS011;7912;51.376;6.126;2023-05-24T03:14:54;7.63;;;3.50;;
15624;SDS011;7912;51.376;6.126;2023-05-24T03:17:21;8.40;;;3.20;;
15624;SDS011;7912;51.376;6.126;2023-05-24T03:19:48;7.80;;;3.80;;
15624;SDS011;7912;51.376;6.126;2023-05-24T03:22:18;4.27;;;3.23;;
15624;SDS011;7912;51.376;6.126;2023-05-24T03:24:45;6.37;;;3.50;;
15624;SDS011;7912;51.376;6.126;2023-05-24T03:27:12;8.53;;;3.80;;
15624;SDS011;7912;51.376;6.126;2023-05-24T03:29:40;8.07;;;3.73;;
15624;SDS011;7912;51.376;6.126;2023-05-24T03:32:07;9.43;;;3.43;;
15624;SDS011;7912;51.376;6.126;2023-05-24T03:34:34;10.13;;;3.80;;
15624;SDS011;7912;51.376;6.126;2023-05-24T03:37:01;6.10;;;3.50;;
15624;SDS011;7912;51.376;6.126;2023-05-24T03:39:29;8.13;;;3.70;;
15624;SDS011;7912;51.376;6.126;2023-05-24T03:41:56;6.23;;;3.40;;
15624;SDS011;7912;51.376;6.126;2023-05-24T03:44:24;6.63;;;3.70;;
15624;SDS011;7912;51.376;6.126;2023-05-24T03:46:52;8.67;;;3.77;;
15624;SDS011;7912;51.376;6.126;2023-05-24T03:49:19;7.23;;;3.60;;
15624;SDS011;7912;51.376;6.126;2023-05-24T03:51:47;6.50;;;3.73;;
15624;SDS011;7912;51.376;6.126;2023-05-24T03:54:14;7.47;;;4.23;;
15624;SDS011;7912;51.376;6.126;2023-05-24T03:56:43;4.80;;;2.87;;
15624;SDS011;7912;51.376;6.126;2023-05-24T03:59:11;7.63;;;4.47;;
15624;SDS011;7912;51.376;6.126;2023-05-24T04:01:38;6.97;;;3.83;;
15624;SDS011;7912;51.376;6.126;2023-05-24T04:04:06;6.97;;;3.70;;
15624;SDS011;7912;51.376;6.126;2023-05-24T04:06:33;5.93;;;4.17;;
15624;SDS011;7912;51.376;6.126;2023-05-24T04:09:02;7.00;;;4.23;;
15624;SDS011;7912;51.376;6.126;2023-05-24T04:11:32;6.90;;;3.63;;
15624;SDS011;7912;51.376;6.126;2023-05-24T04:14:00;10.07;;;4.67;;
15624;SDS011;7912;51.376;6.126;2023-05-24T04:16:29;6.60;;;3.83;;
15624;SDS011;7912;51.376;6.126;2023-05-24T04:18:59;5.70;;;3.90;;
15624;SDS011;7912;51.376;6.126;2023-05-24T04:21:29;9.37;;;4.03;;
15624;SDS011;7912;51.376;6.126;2023-05-24T04:23:58;7.73;;;4.07;;
15624;SDS011;7912;51.376;6.126;2023-05-24T04:26:27;9.23;;;4.30;;
15624;SDS011;7912;51.376;6.126;2023-05-24T04:28:55;7.23;;;3.97;;
15624;SDS011;7912;51.376;6.126;2023-05-24T04:31:23;9.07;;;4.60;;
15624;SDS011;7912;51.376;6.126;2023-05-24T04:33:51;9.63;;;5.13;;
15624;SDS011;7912;51.376;6.126;2023-05-24T04:36:19;11.60;;;4.73;;
15624;SDS011;7912;51.376;6.126;2023-05-24T04:38:48;6.63;;;3.60;;
15624;SDS011;7912;51.376;6.126;2023-05-24T04:41:19;8.47;;;4.20;;
15624;SDS011;7912;51.376;6.126;2023-05-24T04:43:47;7.10;;;4.40;;
15624;SDS011;7912;51.376;6.126;2023-05-24T04:46:15;11.83;;;5.23;;
15624;SDS011;7912;51.376;6.126;2023-05-24T04:48:43;8.90;;;4.53;;
15624;SDS011;7912;51.376;6.126;2023-05-24T04:51:10;6.30;;;3.77;;
15624;SDS011;7912;51.376;6.126;2023-05-24T04:53:38;8.17;;;3.80;;
15624;SDS011;7912;51.376;6.126;2023-05-24T04:56:05;8.67;;;4.40;;
15624;SDS011;7912;51.376;6.126;2023-05-24T04:58:33;8.63;;;4.60;;
15624;SDS011;7912;51.376;6.126;2023-05-24T05:01:02;7.90;;;4.60;;
15624;SDS011;7912;51.376;6.126;2023-05-24T05:03:33;7.87;;;4.20;;
15624;SDS011;7912;51.376;6.126;2023-05-24T05:06:00;7.87;;;4.63;;
15624;SDS011;7912;51.376;6.126;2023-05-24T05:08:28;6.33;;;4.43;;
15624;SDS011;7912;51.376;6.126;2023-05-24T05:10:56;9.67;;;4.73;;
15624;SDS011;7912;51.376;6.126;2023-05-24T05:13:24;9.23;;;4.53;;
15624;SDS011;7912;51.376;6.126;2023-05-24T05:15:51;9.87;;;5.13;;
15624;SDS011;7912;51.376;6.126;2023-05-24T05:18:19;11.33;;;5.40;;
15624;SDS011;7912;51.376;6.126;2023-05-24T05:20:46;9.57;;;5.07;;
15624;SDS011;7912;51.376;6.126;2023-05-24T05:23:14;11.03;;;6.07;;
15624;SDS011;7912;51.376;6.126;2023-05-24T05:25:41;10.50;;;5.87;;
15624;SDS011;7912;51.376;6.126;2023-05-24T05:28:08;15.57;;;5.57;;
15624;SDS011;7912;51.376;6.126;2023-05-24T05:30:35;12.20;;;6.00;;
15624;SDS011;7912;51.376;6.126;2023-05-24T05:33:03;9.27;;;5.33;;
15624;SDS011;7912;51.376;6.126;2023-05-24T05:35:31;14.97;;;5.73;;
15624;SDS011;7912;51.376;6.126;2023-05-24T05:37:58;10.37;;;5.10;;
15624;SDS011;7912;51.376;6.126;2023-05-24T05:40:25;11.53;;;5.00;;
15624;SDS011;7912;51.376;6.126;2023-05-24T05:42:53;9.53;;;4.77;;
15624;SDS011;7912;51.376;6.126;2023-05-24T05:45:20;11.90;;;5.87;;
15624;SDS011;7912;51.376;6.126;2023-05-24T05:48:01;9.67;;;5.63;;
15624;SDS011;7912;51.376;6.126;2023-05-24T05:50:28;10.53;;;4.93;;
15624;SDS011;7912;51.376;6.126;2023-05-24T05:52:55;8.27;;;4.70;;
15624;SDS011;7912;51.376;6.126;2023-05-24T05:55:23;8.50;;;5.00;;
15624;SDS011;7912;51.376;6.126;2023-05-24T05:57:55;9.80;;;5.20;;
15624;SDS011;7912;51.376;6.126;2023-05-24T06:00:22;10.30;;;4.87;;
15624;SDS011;7912;51.376;6.126;2023-05-24T06:02:50;12.93;;;5.30;;
15624;SDS011;7912;51.376;6.126;2023-05-24T06:05:17;10.80;;;4.83;;
15624;SDS011;7912;51.376;6.126;2023-05-24T06:07:45;11.83;;;5.30;;
15624;SDS011;7912;51.376;6.126;2023-05-24T06:10:12;10.57;;;5.20;;
15624;SDS011;7912;51.376;6.126;2023-05-24T06:12:40;14.10;;;5.17;;
15624;SDS011;7912;51.376;6.126;2023-05-24T06:15:07;13.10;;;4.80;;
15624;SDS011;7912;51.376;6.126;2023-05-24T06:17:35;9.53;;;4.57;;
15624;SDS011;7912;51.376;6.126;2023-05-24T06:20:03;10.23;;;4.47;;
15624;SDS011;7912;51.376;6.126;2023-05-24T06:26:24;8.67;;;5.30;;
15624;SDS011;7912;51.376;6.126;2023-05-24T06:28:52;12.97;;;5.10;;
15624;SDS011;7912;51.376;6.126;2023-05-24T06:31:20;12.00;;;5.00;;
15624;SDS011;7912;51.376;6.126;2023-05-24T06:33:47;10.57;;;5.63;;
15624;SDS011;7912;51.376;6.126;2023-05-24T06:36:29;10.97;;;4.10;;
15624;SDS011;7912;51.376;6.126;2023-05-24T06:39:01;13.13;;;5.17;;
15624;SDS011;7912;51.376;6.126;2023-05-24T06:41:30;8.77;;;4.30;;
15624;SDS011;7912;51.376;6.126;2023-05-24T06:44:04;9.80;;;4.63;;
15624;SDS011;7912;51.376;6.126;2023-05-24T06:46:32;8.93;;;4.43;;
15624;SDS011;7912;51.376;6.126;2023-05-24T06:49:00;10.40;;;5.17;;
15624;SDS011;7912;51.376;6.126;2023-05-24T06:51:29;9.53;;;4.50;;
15624;SDS011;7912;51.376;6.126;2023-05-24T06:56:47;9.63;;;4.77;;
15624;SDS011;7912;51.376;6.126;2023-05-24T06:59:14;11.53;;;5.10;;
15624;SDS011;7912;51.376;6.126;2023-05-24T07:01:42;10.37;;;5.37;;
15624;SDS011;7912;51.376;6.126;2023-05-24T07:04:09;12.47;;;5.57;;
15624;SDS011;7912;51.376;6.126;2023-05-24T07:06:36;9.77;;;4.77;;
15624;SDS011;7912;51.376;6.126;2023-05-24T07:09:04;14.03;;;6.17;;
15624;SDS011;7912;51.376;6.126;2023-05-24T07:11:32;7.87;;;5.07;;
15624;SDS011;7912;51.376;6.126;2023-05-24T07:14:00;10.03;;;5.33;;
15624;SDS011;7912;51.376;6.126;2023-05-24T07:16:30;10.97;;;5.20;;
15624;SDS011;7912;51.376;6.126;2023-05-24T07:18:58;14.77;;;5.70;;
15624;SDS011;7912;51.376;6.126;2023-05-24T07:21:29;10.63;;;4.93;;
15624;SDS011;7912;51.376;6.126;2023-05-24T07:24:01;12.63;;;6.10;;
15624;SDS011;7912;51.376;6.126;2023-05-24T07:26:29;8.43;;;4.83;;
15624;SDS011;7912;51.376;6.126;2023-05-24T07:28:57;11.90;;;5.93;;
15624;SDS011;7912;51.376;6.126;2023-05-24T07:31:24;13.17;;;5.73;;
15624;SDS011;7912;51.376;6.126;2023-05-24T07:33:52;10.37;;;5.73;;
15624;SDS011;7912;51.376;6.126;2023-05-24T07:36:20;9.57;;;5.80;;
15624;SDS011;7912;51.376;6.126;2023-05-24T07:38:47;8.80;;;4.90;;
15624;SDS011;7912;51.376;6.126;2023-05-24T07:41:14;12.57;;;5.80;;
15624;SDS011;7912;51.376;6.126;2023-05-24T07:43:42;15.60;;;6.13;;
15624;SDS011;7912;51.376;6.126;2023-05-24T07:46:12;9.13;;;5.20;;
15624;SDS011;7912;51.376;6.126;2023-05-24T07:48:39;15.03;;;6.10;;
15624;SDS011;7912;51.376;6.126;2023-05-24T07:51:06;11.13;;;5.20;;
15624;SDS011;7912;51.376;6.126;2023-05-24T07:53:34;12.57;;;5.10;;
15624;SDS011;7912;51.376;6.126;2023-05-24T07:56:03;12.63;;;5.80;;
15624;SDS011;7912;51.376;6.126;2023-05-24T07:58:30;11.43;;;5.03;;
15624;SDS011;7912;51.376;6.126;2023-05-24T08:03:44;10.17;;;4.73;;
15624;SDS011;7912;51.376;6.126;2023-05-24T08:06:12;11.37;;;4.93;;
15624;SDS011;7912;51.376;6.126;2023-05-24T08:08:40;9.13;;;4.53;;
15624;SDS011;7912;51.376;6.126;2023-05-24T08:11:07;12.67;;;5.60;;
15624;SDS011;7912;51.376;6.126;2023-05-24T08:13:34;11.73;;;4.93;;
15624;SDS011;7912;51.376;6.126;2023-05-24T08:16:01;12.03;;;5.17;;
15624;SDS011;7912;51.376;6.126;2023-05-24T08:18:29;13.90;;;5.00;;
15624;SDS011;7912;51.376;6.126;2023-05-24T08:20:56;8.93;;;4.93;;
15624;SDS011;7912;51.376;6.126;2023-05-24T08:31:14;10.17;;;5.30;;
15624;SDS011;7912;51.376;6.126;2023-05-24T08:33:41;9.70;;;4.63;;
15624;SDS011;7912;51.376;6.126;2023-05-24T08:36:09;10.63;;;4.80;;
15624;SDS011;7912;51.376;6.126;2023-05-24T08:38:36;12.53;;;5.23;;
15624;SDS011;7912;51.376;6.126;2023-05-24T08:41:04;9.60;;;4.37;;
15624;SDS011;7912;51.376;6.126;2023-05-24T08:43:34;12.20;;;4.53;;
15624;SDS011;7912;51.376;6.126;2023-05-24T08:46:04;11.57;;;4.47;;
15624;SDS011;7912;51.376;6.126;2023-05-24T08:48:33;11.97;;;4.47;;
15624;SDS011;7912;51.376;6.126;2023-05-24T08:51:15;10.23;;;4.37;;
15624;SDS011;7912;51.376;6.126;2023-05-24T08:53:43;8.60;;;4.53;;
15624;SDS011;7912;51.376;6.126;2023-05-24T08:56:17;8.83;;;4.47;;
15624;SDS011;7912;51.376;6.126;2023-05-24T08:58:45;9.10;;;4.50;;
15624;SDS011;7912;51.376;6.126;2023-05-24T09:01:14;11.40;;;4.60;;
15624;SDS011;7912;51.376;6.126;2023-05-24T09:03:44;10.07;;;4.17;;
15624;SDS011;7912;51.376;6.126;2023-05-24T09:06:15;9.40;;;4.23;;
15624;SDS011;7912;51.376;6.126;2023-05-24T09:08:44;11.00;;;3.90;;
15624;SDS011;7912;51.376;6.126;2023-05-24T09:11:13;8.37;;;3.53;;
15624;SDS011;7912;51.376;6.126;2023-05-24T09:13:44;9.23;;;3.50;;
15624;SDS011;7912;51.376;6.126;2023-05-24T09:16:11;8.87;;;3.77;;
15624;SDS011;7912;51.376;6.126;2023-05-24T09:18:40;9.37;;;3.97;;
15624;SDS011;7912;51.376;6.126;2023-05-24T09:21:09;8.93;;;3.63;;
15624;SDS011;7912;51.376;6.126;2023-05-24T09:23:37;8.80;;;3.83;;
15624;SDS011;7912;51.376;6.126;2023-05-24T09:26:07;9.03;;;3.93;;
15624;SDS011;7912;51.376;6.126;2023-05-24T09:28:36;7.40;;;3.73;;
15624;SDS011;7912;51.376;6.126;2023-05-24T09:31:04;11.10;;;4.43;;
15624;SDS011;7912;51.376;6.126;2023-05-24T09:33:33;6.77;;;3.77;;
15624;SDS011;7912;51.376;6.126;2023-05-24T09:36:02;10.07;;;4.03;;
15624;SDS011;7912;51.376;6.126;2023-05-24T09:38:32;9.20;;;4.47;;
15624;SDS011;7912;51.376;6.126;2023-05-24T09:41:03;9.53;;;4.10;;
15624;SDS011;7912;51.376;6.126;2023-05-24T09:43:33;11.43;;;4.40;;
15624;SDS011;7912;51.376;6.126;2023-05-24T09:46:17;10.50;;;4.30;;
15624;SDS011;7912;51.376;6.126;2023-05-24T09:48:57;9.17;;;4.47;;
15624;SDS011;7912;51.376;6.126;2023-05-24T09:51:28;8.77;;;3.83;;
15624;SDS011;7912;51.376;6.126;2023-05-24T09:53:56;8.13;;;4.20;;
15624;SDS011;7912;51.376;6.126;2023-05-24T09:56:28;8.93;;;3.80;;
15624;SDS011;7912;51.376;6.126;2023-05-24T09:58:56;8.70;;;4.17;;
15624;SDS011;7912;51.376;6.126;2023-05-24T10:01:24;7.77;;;3.63;;
15624;SDS011;7912;51.376;6.126;2023-05-24T10:03:58;10.00;;;3.93;;
15624;SDS011;7912;51.376;6.126;2023-05-24T10:06:35;9.23;;;4.10;;
15624;SDS011;7912;51.376;6.126;2023-05-24T10:09:04;9.33;;;4.07;;
15624;SDS011;7912;51.376;6.126;2023-05-24T10:11:33;8.93;;;4.03;;
15624;SDS011;7912;51.376;6.126;2023-05-24T10:14:07;9.07;;;4.17;;
15624;SDS011;7912;51.376;6.126;2023-05-24T10:16:36;9.97;;;4.50;;
15624;SDS011;7912;51.376;6.126;2023-05-24T10:19:04;10.23;;;4.13;;
15624;SDS011;7912;51.376;6.126;2023-05-24T10:21:32;12.03;;;4.07;;
15624;SDS011;7912;51.376;6.126;2023-05-24T10:24:07;7.73;;;3.90;;
15624;SDS011;7912;51.376;6.126;2023-05-24T10:26:36;9.00;;;3.83;;
15624;SDS011;7912;51.376;6.126;2023-05-24T10:29:08;8.40;;;3.87;;
15624;SDS011;7912;51.376;6.126;2023-05-24T10:32:10;7.70;;;3.97;;
15624;SDS011;7912;51.376;6.126;2023-05-24T10:34:42;6.77;;;3.67;;
15624;SDS011;7912;51.376;6.126;2023-05-24T10:37:12;7.53;;;3.63;;
15624;SDS011;7912;51.376;6.126;2023-05-24T10:39:40;6.77;;;3.80;;
15624;SDS011;7912;51.376;6.126;2023-05-24T10:42:08;7.53;;;3.87;;
15624;SDS011;7912;51.376;6.126;2023-05-24T10:44:35;8.33;;;3.70;;
15624;SDS011;7912;51.376;6.126;2023-05-24T10:52:18;7.20;;;3.70;;
15624;SDS011;7912;51.376;6.126;2023-05-24T10:55:05;8.13;;;3.60;;
15624;SDS011;7912;51.376;6.126;2023-05-24T10:57:36;6.73;;;3.63;;
15624;SDS011;7912;51.376;6.126;2023-05-24T11:03:01;8.83;;;3.90;;
15624;SDS011;7912;51.376;6.126;2023-05-24T11:05:35;6.37;;;3.47;;
15624;SDS011;7912;51.376;6.126;2023-05-24T11:08:23;10.10;;;3.87;;
15624;SDS011;7912;51.376;6.126;2023-05-24T11:11:01;7.97;;;3.63;;
15624;SDS011;7912;51.376;6.126;2023-05-24T11:13:54;9.03;;;3.93;;
15624;SDS011;7912;51.376;6.126;2023-05-24T11:16:33;7.87;;;3.63;;
15624;SDS011;7912;51.376;6.126;2023-05-24T11:19:15;6.80;;;3.53;;
15624;SDS011;7912;51.376;6.126;2023-05-24T11:21:55;7.30;;;3.57;;
15624;SDS011;7912;51.376;6.126;2023-05-24T11:24:26;8.20;;;3.70;;
15624;SDS011;7912;51.376;6.126;2023-05-24T11:26:54;8.33;;;3.90;;
15624;SDS011;7912;51.376;6.126;2023-05-24T11:29:23;7.37;;;4.17;;
15624;SDS011;7912;51.376;6.126;2023-05-24T11:31:54;8.70;;;4.10;;
15624;SDS011;7912;51.376;6.126;2023-05-24T11:34:30;6.40;;;3.53;;
15624;SDS011;7912;51.376;6.126;2023-05-24T11:36:59;7.70;;;3.30;;
15624;SDS011;7912;51.376;6.126;2023-05-24T11:39:32;6.60;;;3.33;;
15624;SDS011;7912;51.376;6.126;2023-05-24T11:42:05;9.20;;;3.63;;
15624;SDS011;7912;51.376;6.126;2023-05-24T11:44:34;7.57;;;3.80;;
15624;SDS011;7912;51.376;6.126;2023-05-24T11:47:06;7.43;;;3.97;;
15624;SDS011;7912;51.376;6.126;2023-05-24T11:49:34;9.07;;;3.80;;
15624;SDS011;7912;51.376;6.126;2023-05-24T11:52:02;11.63;;;3.80;;
15624;SDS011;7912;51.376;6.126;2023-05-24T11:54:30;8.23;;;3.83;;
15624;SDS011;7912;51.376;6.126;2023-05-24T11:57:31;8.23;;;4.07;;
15624;SDS011;7912;51.376;6.126;2023-05-24T12:00:06;8.00;;;3.90;;
15624;SDS011;7912;51.376;6.126;2023-05-24T12:02:36;7.47;;;3.77;;
15624;SDS011;7912;51.376;6.126;2023-05-24T12:05:06;9.27;;;3.83;;
15624;SDS011;7912;51.376;6.126;2023-05-24T12:07:39;6.90;;;3.53;;
15624;SDS011;7912;51.376;6.126;2023-05-24T12:10:07;10.73;;;4.23;;
15624;SDS011;7912;51.376;6.126;2023-05-24T12:12:36;7.30;;;3.97;;
15624;SDS011;7912;51.376;6.126;2023-05-24T12:15:11;7.17;;;4.10;;
15624;SDS011;7912;51.376;6.126;2023-05-24T12:17:40;8.13;;;3.77;;
15624;SDS011;7912;51.376;6.126;2023-05-24T12:20:08;7.77;;;3.90;;
15624;SDS011;7912;51.376;6.126;2023-05-24T12:22:47;9.33;;;3.87;;
15624;SDS011;7912;51.376;6.126;2023-05-24T12:25:19;6.57;;;3.70;;
15624;SDS011;7912;51.376;6.126;2023-05-24T12:27:52;10.13;;;4.30;;
15624;SDS011;7912;51.376;6.126;2023-05-24T12:30:22;9.10;;;3.97;;
15624;SDS011;7912;51.376;6.126;2023-05-24T12:32:51;8.90;;;4.30;;
15624;SDS011;7912;51.376;6.126;2023-05-24T12:35:22;6.53;;;3.70;;
15624;SDS011;7912;51.376;6.126;2023-05-24T12:37:56;6.57;;;3.70;;
15624;SDS011;7912;51.376;6.126;2023-05-24T12:40:25;6.47;;;3.50;;
15624;SDS011;7912;51.376;6.126;2023-05-24T12:42:53;6.93;;;4.00;;
15624;SDS011;7912;51.376;6.126;2023-05-24T12:45:23;9.57;;;4.10;;
15624;SDS011;7912;51.376;6.126;2023-05-24T12:47:52;7.77;;;3.60;;
15624;SDS011;7912;51.376;6.126;2023-05-24T12:50:23;9.37;;;3.63;;
15624;SDS011;7912;51.376;6.126;2023-05-24T12:52:52;10.97;;;3.70;;
15624;SDS011;7912;51.376;6.126;2023-05-24T12:55:24;12.27;;;4.20;;
15624;SDS011;7912;51.376;6.126;2023-05-24T12:57:53;6.13;;;3.90;;
15624;SDS011;7912;51.376;6.126;2023-05-24T13:00:23;10.47;;;4.23;;
15624;SDS011;7912;51.376;6.126;2023-05-24T13:02:53;11.17;;;4.07;;
15624;SDS011;7912;51.376;6.126;2023-05-24T13:05:25;7.60;;;3.90;;
15624;SDS011;7912;51.376;6.126;2023-05-24T13:07:54;7.37;;;3.60;;
15624;SDS011;7912;51.376;6.126;2023-05-24T13:10:23;9.53;;;4.00;;
15624;SDS011;7912;51.376;6.126;2023-05-24T13:12:52;8.00;;;3.60;;
15624;SDS011;7912;51.376;6.126;2023-05-24T13:15:21;7.00;;;4.00;;
15624;SDS011;7912;51.376;6.126;2023-05-24T13:17:49;10.13;;;4.10;;
15624;SDS011;7912;51.376;6.126;2023-05-24T13:23:40;8.40;;;3.90;;
15624;SDS011;7912;51.376;6.126;2023-05-24T13:26:12;8.30;;;3.90;;
15624;SDS011;7912;51.376;6.126;2023-05-24T13:28:39;6.67;;;3.90;;
15624;SDS011;7912;51.376;6.126;2023-05-24T13:31:28;7.47;;;4.07;;
15624;SDS011;7912;51.376;6.126;2023-05-24T13:33:56;7.10;;;3.43;;
15624;SDS011;7912;51.376;6.126;2023-05-24T13:36:23;7.70;;;3.80;;
15624;SDS011;7912;51.376;6.126;2023-05-24T13:38:51;8.97;;;4.17;;
15624;SDS011;7912;51.376;6.126;2023-05-24T13:41:39;7.20;;;3.57;;
15624;SDS011;7912;51.376;6.126;2023-05-24T13:44:12;5.43;;;2.93;;
15624;SDS011;7912;51.376;6.126;2023-05-24T13:46:50;9.67;;;3.60;;
15624;SDS011;7912;51.376;6.126;2023-05-24T13:49:20;7.43;;;3.37;;
15624;SDS011;7912;51.376;6.126;2023-05-24T13:51:53;7.63;;;3.60;;
15624;SDS011;7912;51.376;6.126;2023-05-24T13:54:31;6.60;;;3.63;;
15624;SDS011;7912;51.376;6.126;2023-05-24T13:57:02;6.87;;;3.57;;
15624;SDS011;7912;51.376;6.126;2023-05-24T13:59:33;7.97;;;3.70;;
15624;SDS011;7912;51.376;6.126;2023-05-24T14:02:03;8.07;;;3.63;;
15624;SDS011;7912;51.376;6.126;2023-05-24T14:04:34;10.20;;;3.77;;
15624;SDS011;7912;51.376;6.126;2023-05-24T14:07:02;6.53;;;3.20;;
15624;SDS011;7912;51.376;6.126;2023-05-24T14:09:34;5.93;;;2.83;;
15624;SDS011;7912;51.376;6.126;2023-05-24T14:12:05;6.73;;;3.50;;
15624;SDS011;7912;51.376;6.126;2023-05-24T14:14:34;6.97;;;3.37;;
15624;SDS011;7912;51.376;6.126;2023-05-24T14:17:22;8.50;;;4.10;;
15624;SDS011;7912;51.376;6.126;2023-05-24T14:19:49;5.13;;;3.23;;
15624;SDS011;7912;51.376;6.126;2023-05-24T14:22:17;5.63;;;3.50;;
15624;SDS011;7912;51.376;6.126;2023-05-24T14:24:44;7.07;;;3.60;;
15624;SDS011;7912;51.376;6.126;2023-05-24T14:27:12;5.43;;;3.50;;
15624;SDS011;7912;51.376;6.126;2023-05-24T14:29:40;7.73;;;3.80;;
15624;SDS011;7912;51.376;6.126;2023-05-24T14:32:07;6.63;;;3.80;;
15624;SDS011;7912;51.376;6.126;2023-05-24T14:34:36;7.43;;;4.00;;
15624;SDS011;7912;51.376;6.126;2023-05-24T14:37:06;6.37;;;3.83;;
15624;SDS011;7912;51.376;6.126;2023-05-24T14:39:34;6.30;;;3.50;;
15624;SDS011;7912;51.376;6.126;2023-05-24T14:42:02;8.50;;;3.80;;
15624;SDS011;7912;51.376;6.126;2023-05-24T14:44:29;7.07;;;3.60;;
15624;SDS011;7912;51.376;6.126;2023-05-24T14:46:57;4.97;;;3.30;;
15624;SDS011;7912;51.376;6.126;2023-05-24T14:49:24;7.77;;;3.83;;
15624;SDS011;7912;51.376;6.126;2023-05-24T14:51:53;7.47;;;3.13;;
15624;SDS011;7912;51.376;6.126;2023-05-24T14:54:21;4.57;;;3.13;;
15624;SDS011;7912;51.376;6.126;2023-05-24T14:56:48;6.03;;;3.47;;
15624;SDS011;7912;51.376;6.126;2023-05-24T14:59:16;5.77;;;3.10;;
15624;SDS011;7912;51.376;6.126;2023-05-24T15:01:44;6.80;;;3.80;;
15624;SDS011;7912;51.376;6.126;2023-05-24T15:04:12;6.40;;;3.70;;
15624;SDS011;7912;51.376;6.126;2023-05-24T15:06:40;6.33;;;3.37;;
15624;SDS011;7912;51.376;6.126;2023-05-24T15:09:07;5.57;;;3.30;;
15624;SDS011;7912;51.376;6.126;2023-05-24T15:11:35;6.50;;;3.30;;
15624;SDS011;7912;51.376;6.126;2023-05-24T15:14:03;5.47;;;3.37;;
15624;SDS011;7912;51.376;6.126;2023-05-24T15:16:32;7.40;;;3.70;;
15624;SDS011;7912;51.376;6.126;2023-05-24T15:18:59;5.93;;;3.30;;
15624;SDS011;7912;51.376;6.126;2023-05-24T15:21:27;6.33;;;3.53;;
15624;SDS011;7912;51.376;6.126;2023-05-24T15:23:55;7.63;;;3.57;;
15624;SDS011;7912;51.376;6.126;2023-05-24T15:26:25;8.10;;;4.00;;
15624;SDS011;7912;51.376;6.126;2023-05-24T15:41:00;6.17;;;3.50;;
15624;SDS011;7912;51.376;6.126;2023-05-24T15:43:29;7.63;;;3.87;;
15624;SDS011;7912;51.376;6.126;2023-05-24T15:45:57;6.77;;;3.33;;
15624;SDS011;7912;51.376;6.126;2023-05-24T15:48:24;7.87;;;3.30;;
15624;SDS011;7912;51.376;6.126;2023-05-24T15:50:54;6.83;;;3.87;;
15624;SDS011;7912;51.376;6.126;2023-05-24T15:53:42;11.00;;;4.77;;
15624;SDS011;7912;51.376;6.126;2023-05-24T15:56:10;6.37;;;3.83;;
15624;SDS011;7912;51.376;6.126;2023-05-24T15:58:37;8.27;;;3.60;;
15624;SDS011;7912;51.376;6.126;2023-05-24T16:01:05;6.23;;;3.27;;
15624;SDS011;7912;51.376;6.126;2023-05-24T16:03:32;7.00;;;3.90;;
15624;SDS011;7912;51.376;6.126;2023-05-24T16:06:04;5.63;;;3.83;;
15624;SDS011;7912;51.376;6.126;2023-05-24T16:08:32;6.97;;;3.70;;
15624;SDS011;7912;51.376;6.126;2023-05-24T16:10:59;7.83;;;3.80;;
15624;SDS011;7912;51.376;6.126;2023-05-24T16:13:30;8.03;;;3.97;;